Time;durP1;ratioP1;P1;durP2;ratioP2;P2;SDS_P1;SDS_P2;PMS_P1;PMS_P2;Temp;Humidity;BMP_temperature;BMP_pressure;BME280_temperature;BME280_humidity;BME280_pressure;Samples;Min_cycle;Max_cycle;Signal;HPM_P1;HPM_P2
2024/03/11 00:01:44;;;;;;;1.30;1.20;;;14.70;57.00;;;;;;5033746;28;20240;-64
2024/03/11 00:04:10;;;;;;;2.70;1.20;;;14.80;56.50;;;;;;5034267;28;20687;-61
2024/03/11 00:06:39;;;;;;;1.13;1.00;;;14.80;56.40;;;;;;5033650;28;20446;-62
2024/03/11 00:09:15;;;;;;;1.17;1.07;;;14.90;56.30;;;;;;5028790;28;20435;-62
2024/03/11 00:11:48;;;;;;;1.47;1.33;;;14.90;56.20;;;;;;5029255;28;20409;-66
2024/03/11 00:14:16;;;;;;;1.40;1.20;;;14.90;56.30;;;;;;5026065;28;20908;-65
2024/03/11 00:16:42;;;;;;;1.30;1.00;;;15.10;56.30;;;;;;5027418;28;20472;-63
2024/03/11 00:19:08;;;;;;;1.20;1.10;;;15.10;55.70;;;;;;5028438;28;20936;-66
2024/03/11 00:21:35;;;;;;;1.17;1.10;;;15.10;55.70;;;;;;5021934;28;20436;-62
2024/03/11 00:24:00;;;;;;;1.13;1.00;;;15.10;55.40;;;;;;5023160;28;20586;-62
2024/03/11 00:26:26;;;;;;;1.53;1.13;;;15.20;55.50;;;;;;5019424;28;20517;-61
2024/03/11 00:28:52;;;;;;;1.00;0.90;;;15.30;55.50;;;;;;5020787;28;20630;-68
2024/03/11 00:31:18;;;;;;;1.67;1.57;;;15.30;55.00;;;;;;5024154;28;20228;-61
2024/03/11 00:33:44;;;;;;;1.50;1.40;;;15.40;55.00;;;;;;5029597;28;20192;-61
2024/03/11 00:36:10;;;;;;;1.33;1.23;;;15.50;55.00;;;;;;5025834;28;20443;-60
2024/03/11 00:38:36;;;;;;;1.50;1.40;;;15.60;54.70;;;;;;5029323;28;20863;-60
2024/03/11 00:41:02;;;;;;;1.37;1.27;;;15.60;54.70;;;;;;5034065;28;21014;-60
2024/03/11 00:43:27;;;;;;;1.07;1.00;;;15.70;54.60;;;;;;5033077;28;20463;-60
2024/03/11 00:45:53;;;;;;;1.67;1.27;;;15.80;54.40;;;;;;5030688;28;20208;-61
2024/03/11 00:48:20;;;;;;;1.40;1.30;;;15.80;54.30;;;;;;5033586;28;20193;-60
2024/03/11 00:50:46;;;;;;;1.10;1.10;;;15.90;54.10;;;;;;5028373;28;20265;-61
2024/03/11 00:53:11;;;;;;;1.73;1.30;;;15.90;53.80;;;;;;5031386;28;20513;-60
2024/03/11 00:55:38;;;;;;;1.30;1.20;;;16.00;53.80;;;;;;5029819;28;20665;-61
2024/03/11 00:58:04;;;;;;;1.47;1.37;;;16.00;53.90;;;;;;5031241;28;20216;-60
2024/03/11 01:00:31;;;;;;;3.30;1.60;;;16.00;53.70;;;;;;5031559;28;20978;-60
2024/03/11 01:02:57;;;;;;;1.60;1.50;;;16.00;53.60;;;;;;5033104;28;20417;-60
2024/03/11 01:05:23;;;;;;;1.30;1.20;;;15.90;53.40;;;;;;5028000;28;20806;-61
2024/03/11 01:07:49;;;;;;;1.33;1.23;;;15.60;53.80;;;;;;5025460;28;20510;-60
2024/03/11 01:10:15;;;;;;;1.10;1.10;;;15.60;54.10;;;;;;5025676;28;20928;-60
2024/03/11 01:12:41;;;;;;;1.20;1.10;;;15.60;54.20;;;;;;5022465;28;20208;-60
2024/03/11 01:15:08;;;;;;;1.50;1.40;;;15.70;54.50;;;;;;5027062;28;20442;-60
2024/03/11 01:17:34;;;;;;;1.40;1.30;;;15.70;54.40;;;;;;5021664;28;20513;-59
2024/03/11 01:20:00;;;;;;;1.43;1.33;;;15.70;54.10;;;;;;5022248;28;20883;-61
2024/03/11 01:22:27;;;;;;;1.63;1.20;;;15.50;54.60;;;;;;5022403;28;20537;-59
2024/03/11 01:24:53;;;;;;;1.40;1.30;;;15.30;55.00;;;;;;5022291;28;20656;-61
2024/03/11 01:27:19;;;;;;;2.50;1.23;;;15.30;55.00;;;;;;5021321;28;20468;-59
2024/03/11 01:29:45;;;;;;;1.20;1.10;;;15.40;54.90;;;;;;5022539;28;20174;-60
2024/03/11 01:32:13;;;;;;;1.60;1.20;;;15.40;55.40;;;;;;5023286;28;20444;-60
2024/03/11 01:34:42;;;;;;;1.40;1.30;;;15.40;54.90;;;;;;5030743;28;20181;-60
2024/03/11 01:37:08;;;;;;;1.23;1.13;;;15.50;54.90;;;;;;5030283;28;20475;-60
2024/03/11 01:39:42;;;;;;;1.30;1.20;;;15.50;54.90;;;;;;5024526;28;20428;-60
2024/03/11 01:42:15;;;;;;;1.50;1.40;;;15.50;54.80;;;;;;5029896;28;20180;-60
2024/03/11 01:44:43;;;;;;;2.43;1.40;;;15.60;54.60;;;;;;5030276;28;20939;-61
2024/03/11 01:47:09;;;;;;;1.10;1.10;;;15.60;54.30;;;;;;5029043;28;20840;-59
2024/03/11 01:49:36;;;;;;;1.60;1.20;;;15.50;54.20;;;;;;5028450;28;20432;-60
2024/03/11 01:52:03;;;;;;;1.50;1.40;;;15.50;54.20;;;;;;5030908;28;20434;-60
2024/03/11 01:54:29;;;;;;;1.20;1.20;;;15.60;54.70;;;;;;5031229;28;20478;-60
2024/03/11 01:56:55;;;;;;;1.30;1.20;;;15.60;54.50;;;;;;5031450;28;21006;-59
2024/03/11 01:59:21;;;;;;;2.17;1.97;;;15.70;54.30;;;;;;5031305;28;20272;-61
2024/03/11 02:01:47;;;;;;;1.40;1.30;;;15.70;54.30;;;;;;5032339;28;20431;-60
2024/03/11 02:04:13;;;;;;;1.30;1.20;;;15.60;54.20;;;;;;5031570;28;20475;-60
2024/03/11 02:06:39;;;;;;;1.30;1.20;;;15.60;54.70;;;;;;5026387;28;20810;-59
2024/03/11 02:09:07;;;;;;;1.20;1.10;;;15.60;54.10;;;;;;5026357;28;20271;-60
2024/03/11 02:11:33;;;;;;;1.87;1.20;;;15.50;54.10;;;;;;5028141;28;20424;-59
2024/03/11 02:13:59;;;;;;;1.67;1.37;;;15.40;53.90;;;;;;5030541;28;20454;-60
2024/03/11 02:16:26;;;;;;;1.50;1.40;;;15.30;54.00;;;;;;5024008;28;21621;-60
2024/03/11 02:18:52;;;;;;;1.40;1.30;;;15.30;54.20;;;;;;5023802;28;20444;-59
2024/03/11 02:21:18;;;;;;;1.50;1.40;;;15.30;54.10;;;;;;5020452;28;20452;-60
2024/03/11 02:23:43;;;;;;;1.67;1.57;;;15.50;54.30;;;;;;5015979;28;20196;-61
2024/03/11 02:26:09;;;;;;;1.50;1.40;;;15.50;53.70;;;;;;5019294;28;20282;-59
2024/03/11 02:28:34;;;;;;;1.30;1.20;;;15.50;54.20;;;;;;5021803;28;20216;-60
2024/03/11 02:31:00;;;;;;;1.30;1.20;;;15.60;53.60;;;;;;5021760;28;20220;-57
2024/03/11 02:33:26;;;;;;;1.17;1.07;;;15.60;53.50;;;;;;5020461;28;20186;-61
2024/03/11 02:35:51;;;;;;;1.67;1.57;;;15.80;53.50;;;;;;5022934;28;20177;-60
2024/03/11 02:38:19;;;;;;;1.57;1.40;;;15.70;53.40;;;;;;5022533;28;20205;-60
2024/03/11 02:40:44;;;;;;;1.80;1.30;;;15.80;53.10;;;;;;5021008;28;20256;-60
2024/03/11 02:43:10;;;;;;;1.30;1.20;;;15.70;53.10;;;;;;5023054;28;20567;-60
2024/03/11 02:45:35;;;;;;;1.40;1.30;;;15.70;53.40;;;;;;5019794;28;20189;-61
2024/03/11 02:48:01;;;;;;;1.13;1.03;;;15.60;53.40;;;;;;5020311;28;20213;-59
2024/03/11 02:50:27;;;;;;;1.40;1.30;;;15.70;53.90;;;;;;5019016;28;20185;-60
2024/03/11 02:52:53;;;;;;;1.10;1.00;;;15.70;53.50;;;;;;5020044;28;20568;-60
2024/03/11 02:55:21;;;;;;;1.13;1.10;;;15.80;54.10;;;;;;5028011;28;20573;-61
2024/03/11 02:57:48;;;;;;;1.50;1.07;;;15.90;53.00;;;;;;5035765;28;20566;-60
2024/03/11 03:00:15;;;;;;;1.50;1.10;;;15.90;52.70;;;;;;5024477;28;20858;-61
2024/03/11 03:02:41;;;;;;;1.30;1.20;;;15.90;52.50;;;;;;5023857;28;20483;-60
2024/03/11 03:05:08;;;;;;;1.20;1.10;;;16.00;52.30;;;;;;5025315;28;20467;-58
2024/03/11 03:07:35;;;;;;;1.20;1.20;;;15.90;52.60;;;;;;5024491;28;21045;-60
2024/03/11 03:10:02;;;;;;;1.00;0.90;;;15.80;52.60;;;;;;5023895;28;20466;-60
2024/03/11 03:12:29;;;;;;;0.90;0.90;;;15.70;52.60;;;;;;5023968;28;20971;-60
2024/03/11 03:14:57;;;;;;;1.20;1.10;;;15.70;52.70;;;;;;5024811;28;20443;-60
2024/03/11 03:17:22;;;;;;;1.07;1.03;;;15.80;52.30;;;;;;5024893;28;20537;-61
2024/03/11 03:19:48;;;;;;;1.03;0.93;;;15.80;52.20;;;;;;5024761;28;20827;-61
2024/03/11 03:22:14;;;;;;;1.77;0.90;;;15.80;51.90;;;;;;5023421;28;20190;-60
2024/03/11 03:24:39;;;;;;;1.20;1.10;;;15.80;51.80;;;;;;5023068;28;20432;-58
2024/03/11 03:27:05;;;;;;;1.13;1.07;;;15.70;51.90;;;;;;5026678;28;20532;-60
2024/03/11 03:29:31;;;;;;;3.30;1.20;;;15.70;51.70;;;;;;5032770;28;20558;-60
2024/03/11 03:31:57;;;;;;;1.00;0.90;;;15.70;51.70;;;;;;5030527;28;20432;-61
2024/03/11 03:34:24;;;;;;;0.90;0.90;;;15.50;51.60;;;;;;5031322;28;20204;-60
2024/03/11 03:36:49;;;;;;;3.70;0.90;;;15.40;51.60;;;;;;5020936;28;20479;-60
2024/03/11 03:39:15;;;;;;;0.83;0.80;;;15.50;51.90;;;;;;5023265;28;20447;-60
2024/03/11 03:41:40;;;;;;;1.23;1.00;;;15.60;51.90;;;;;;5033719;28;20186;-61
2024/03/11 03:44:06;;;;;;;0.93;0.87;;;15.50;51.70;;;;;;5027224;28;20192;-60
2024/03/11 03:46:32;;;;;;;1.93;1.20;;;15.50;51.60;;;;;;5028840;28;20209;-59
2024/03/11 03:48:58;;;;;;;0.93;0.83;;;15.50;51.70;;;;;;5031139;28;20181;-61
2024/03/11 03:51:24;;;;;;;1.07;1.07;;;15.50;51.70;;;;;;5028977;28;20573;-61
2024/03/11 03:53:49;;;;;;;1.50;1.10;;;15.50;51.60;;;;;;5030824;28;20435;-60
2024/03/11 03:56:15;;;;;;;0.97;0.83;;;15.50;51.90;;;;;;5031243;28;20471;-60
2024/03/11 03:58:41;;;;;;;1.03;0.80;;;15.50;52.00;;;;;;5030545;28;20274;-61
2024/03/11 04:01:08;;;;;;;0.93;0.83;;;15.60;51.60;;;;;;5032977;28;20193;-61
2024/03/11 04:03:36;;;;;;;1.10;1.00;;;15.50;51.70;;;;;;5032506;28;20441;-61
2024/03/11 04:06:05;;;;;;;1.00;1.00;;;15.50;51.10;;;;;;5029736;28;20440;-59
2024/03/11 04:08:30;;;;;;;0.97;0.97;;;15.50;51.10;;;;;;5032504;28;20431;-61
2024/03/11 04:10:56;;;;;;;2.87;1.03;;;15.60;51.00;;;;;;5031626;28;20432;-60
2024/03/11 04:13:22;;;;;;;1.30;1.20;;;15.60;50.80;;;;;;5027779;28;20227;-61
2024/03/11 04:15:48;;;;;;;1.40;1.00;;;15.50;50.80;;;;;;5022962;28;20531;-59
2024/03/11 04:18:14;;;;;;;1.10;1.00;;;15.50;50.90;;;;;;5027056;28;21066;-60
2024/03/11 04:20:40;;;;;;;1.13;1.13;;;15.50;50.60;;;;;;5025142;28;20194;-61
2024/03/11 04:23:07;;;;;;;1.33;1.20;;;15.50;50.50;;;;;;5022881;28;20454;-61
2024/03/11 04:25:37;;;;;;;0.67;0.67;;;15.40;50.80;;;;;;5021171;28;20452;-60
2024/03/11 04:28:03;;;;;;;1.73;1.63;;;15.30;51.30;;;;;;5022451;28;20914;-59
2024/03/11 04:30:36;;;;;;;1.00;0.97;;;15.20;51.20;;;;;;5023058;28;20547;-61
2024/03/11 04:33:02;;;;;;;1.80;1.00;;;14.50;51.70;;;;;;5023157;28;20440;-60
2024/03/11 04:35:29;;;;;;;0.83;0.83;;;14.40;52.80;;;;;;5019686;28;20439;-60
2024/03/11 04:37:58;;;;;;;0.80;0.80;;;14.50;53.10;;;;;;5020575;28;20228;-61
2024/03/11 04:40:25;;;;;;;0.80;0.70;;;14.50;52.80;;;;;;5022077;28;20431;-60
2024/03/11 04:42:51;;;;;;;1.17;0.90;;;14.40;52.30;;;;;;5028234;28;20522;-60
2024/03/11 04:45:17;;;;;;;1.10;1.00;;;14.40;53.10;;;;;;5024148;28;20518;-58
2024/03/11 04:47:43;;;;;;;1.43;0.93;;;14.50;53.10;;;;;;5022318;28;20258;-60
2024/03/11 04:50:10;;;;;;;1.43;0.90;;;14.50;52.70;;;;;;5021708;28;20453;-60
2024/03/11 04:52:37;;;;;;;1.17;0.93;;;14.70;52.20;;;;;;5018163;28;20851;-60
2024/03/11 04:55:03;;;;;;;0.97;0.80;;;14.90;52.00;;;;;;5025013;28;20478;-59
2024/03/11 04:57:29;;;;;;;1.43;1.13;;;15.00;51.90;;;;;;5024429;28;20735;-61
2024/03/11 04:59:54;;;;;;;1.50;1.10;;;14.90;51.60;;;;;;5028154;28;21664;-61
2024/03/11 05:02:21;;;;;;;0.87;0.87;;;14.80;51.40;;;;;;5029104;28;20998;-60
2024/03/11 05:04:47;;;;;;;1.00;0.90;;;14.80;51.80;;;;;;5020714;28;20223;-60
2024/03/11 05:07:13;;;;;;;2.10;0.80;;;14.80;52.10;;;;;;5022024;28;20463;-61
2024/03/11 05:09:40;;;;;;;0.83;0.77;;;14.90;51.60;;;;;;5021186;28;21011;-60
2024/03/11 05:12:06;;;;;;;1.33;0.70;;;14.70;51.20;;;;;;5019401;28;20523;-59
2024/03/11 05:14:32;;;;;;;2.30;1.00;;;14.60;51.60;;;;;;5023993;28;20424;-60
2024/03/11 05:16:57;;;;;;;1.10;0.90;;;14.70;51.90;;;;;;5019661;28;20486;-60
2024/03/11 05:19:23;;;;;;;0.93;0.80;;;14.90;51.80;;;;;;5021424;28;20740;-60
2024/03/11 05:21:48;;;;;;;0.70;0.70;;;15.00;51.60;;;;;;5022661;28;21569;-61
2024/03/11 05:24:14;;;;;;;0.80;0.70;;;15.00;51.50;;;;;;5022505;28;20787;-61
2024/03/11 05:26:39;;;;;;;1.13;1.00;;;15.00;51.20;;;;;;5021578;28;21873;-60
2024/03/11 05:29:06;;;;;;;0.93;0.70;;;14.90;51.00;;;;;;5021638;28;20271;-60
2024/03/11 05:31:32;;;;;;;2.03;0.90;;;14.80;51.40;;;;;;5032745;28;20173;-60
2024/03/11 05:33:57;;;;;;;2.10;0.87;;;14.80;51.70;;;;;;5030933;28;20513;-61
2024/03/11 05:36:23;;;;;;;1.47;1.07;;;14.60;51.30;;;;;;5018821;28;20293;-57
2024/03/11 05:38:48;;;;;;;0.70;0.70;;;14.60;51.60;;;;;;5020782;28;20192;-60
2024/03/11 05:41:14;;;;;;;0.97;0.90;;;14.50;51.70;;;;;;5026297;28;20181;-61
2024/03/11 05:43:40;;;;;;;1.60;0.90;;;14.30;52.10;;;;;;5029266;28;20239;-60
2024/03/11 05:46:06;;;;;;;1.20;0.87;;;14.30;52.40;;;;;;5031161;28;20279;-60
2024/03/11 05:48:34;;;;;;;1.00;0.90;;;14.50;52.20;;;;;;5032042;28;20431;-60
2024/03/11 05:51:05;;;;;;;2.13;0.73;;;14.70;51.70;;;;;;5031525;28;20270;-60
2024/03/11 05:53:34;;;;;;;1.00;0.90;;;14.80;51.50;;;;;;5031784;28;20518;-61
2024/03/11 05:55:59;;;;;;;2.60;1.07;;;14.80;51.10;;;;;;5029243;28;21193;-61
2024/03/11 05:58:28;;;;;;;2.10;1.47;;;14.70;51.30;;;;;;5031280;28;20525;-61
2024/03/11 06:00:54;;;;;;;1.80;1.67;;;14.70;51.70;;;;;;5029242;28;20185;-59
2024/03/11 06:03:20;;;;;;;2.07;1.77;;;14.60;51.90;;;;;;5030896;28;20460;-61
2024/03/11 06:05:48;;;;;;;1.30;1.20;;;14.40;51.60;;;;;;5032155;28;20460;-61
2024/03/11 06:08:14;;;;;;;2.30;2.10;;;14.30;52.40;;;;;;5029872;28;20456;-61
2024/03/11 06:10:40;;;;;;;5.50;2.43;;;14.20;52.10;;;;;;5026109;28;20475;-60
2024/03/11 06:13:06;;;;;;;3.50;1.63;;;14.10;53.00;;;;;;5023584;28;20442;-60
2024/03/11 06:15:32;;;;;;;1.90;1.30;;;13.90;52.60;;;;;;5022801;28;20733;-59
2024/03/11 06:17:58;;;;;;;1.60;1.50;;;13.70;53.00;;;;;;5021502;28;20549;-60
2024/03/11 06:20:23;;;;;;;1.90;1.30;;;13.40;54.00;;;;;;5022457;28;20195;-61
2024/03/11 06:22:49;;;;;;;1.37;1.27;;;13.40;54.10;;;;;;5021575;28;20197;-61
2024/03/11 06:25:15;;;;;;;1.50;1.30;;;13.20;54.20;;;;;;5021563;28;20196;-60
2024/03/11 06:27:41;;;;;;;2.27;1.40;;;12.90;54.70;;;;;;5019537;28;20217;-60
2024/03/11 06:30:08;;;;;;;4.83;1.40;;;12.80;55.40;;;;;;5021716;28;20438;-60
2024/03/11 06:32:34;;;;;;;1.47;1.30;;;12.70;55.10;;;;;;5021345;28;20447;-60
2024/03/11 06:35:00;;;;;;;1.27;1.17;;;12.70;55.30;;;;;;5029860;28;20437;-61
2024/03/11 06:37:27;;;;;;;1.20;1.10;;;12.80;54.90;;;;;;5028904;28;20228;-59
2024/03/11 06:39:52;;;;;;;1.50;1.40;;;13.10;54.80;;;;;;5032547;28;20444;-59
2024/03/11 06:42:18;;;;;;;1.30;1.20;;;13.30;54.70;;;;;;5033945;28;20501;-61
2024/03/11 06:44:43;;;;;;;2.20;1.40;;;13.70;54.20;;;;;;5030607;28;20215;-60
2024/03/11 06:47:11;;;;;;;1.00;0.90;;;13.90;53.70;;;;;;5032400;28;20754;-60
2024/03/11 06:49:37;;;;;;;1.53;0.90;;;14.20;53.40;;;;;;5029265;28;20181;-60
2024/03/11 06:52:02;;;;;;;2.00;0.90;;;14.50;52.80;;;;;;5032236;28;20880;-58
2024/03/11 06:54:29;;;;;;;1.23;1.07;;;14.70;52.20;;;;;;5034994;28;20204;-60
2024/03/11 06:56:55;;;;;;;1.63;0.90;;;15.00;52.00;;;;;;5033385;28;20775;-61
2024/03/11 06:59:21;;;;;;;0.60;0.60;;;15.20;51.70;;;;;;5033984;28;20424;-59
2024/03/11 07:01:46;;;;;;;1.10;0.93;;;15.40;51.00;;;;;;5033217;28;20672;-60
2024/03/11 07:04:12;;;;;;;0.87;0.77;;;15.60;51.10;;;;;;5028073;28;20440;-59
2024/03/11 07:06:41;;;;;;;0.97;0.90;;;15.80;50.80;;;;;;5031162;28;20213;-62
2024/03/11 07:09:07;;;;;;;0.97;0.87;;;16.00;50.00;;;;;;5029480;28;20553;-62
2024/03/11 07:11:33;;;;;;;1.03;0.93;;;16.10;49.80;;;;;;5035720;28;21248;-59
2024/03/11 07:13:58;;;;;;;1.20;1.10;;;16.30;49.50;;;;;;5036113;28;20439;-61
2024/03/11 07:16:26;;;;;;;1.17;0.97;;;16.30;48.50;;;;;;5030988;28;20658;-60
2024/03/11 07:18:54;;;;;;;1.40;1.30;;;16.40;48.90;;;;;;5032053;28;20182;-61
2024/03/11 07:21:20;;;;;;;2.47;1.23;;;16.10;47.70;;;;;;5034215;28;20486;-61
2024/03/11 07:23:48;;;;;;;1.50;1.30;;;16.00;49.20;;;;;;5030320;28;20424;-61
2024/03/11 07:26:14;;;;;;;1.60;1.00;;;16.20;48.90;;;;;;5034045;28;20247;-61
2024/03/11 07:28:40;;;;;;;2.40;1.20;;;16.30;49.20;;;;;;5032583;28;20434;-61
2024/03/11 07:31:06;;;;;;;3.77;1.00;;;16.50;48.70;;;;;;5035971;28;20420;-60
2024/03/11 07:33:31;;;;;;;0.97;0.90;;;16.70;48.30;;;;;;5033399;28;20257;-60
2024/03/11 07:35:57;;;;;;;2.30;1.17;;;16.80;48.00;;;;;;5035609;28;20416;-60
2024/03/11 07:38:23;;;;;;;1.00;0.80;;;17.00;47.30;;;;;;5029045;28;20270;-60
2024/03/11 07:40:49;;;;;;;0.70;0.70;;;16.80;46.20;;;;;;5032970;28;20677;-60
2024/03/11 07:43:15;;;;;;;1.13;1.00;;;16.80;47.00;;;;;;5034588;28;20204;-60
2024/03/11 07:45:41;;;;;;;1.53;1.20;;;17.10;46.80;;;;;;5036869;28;20185;-60
2024/03/11 07:48:14;;;;;;;0.90;0.73;;;17.30;46.70;;;;;;5033968;28;20498;-60
2024/03/11 07:50:41;;;;;;;1.57;1.20;;;17.50;46.10;;;;;;5030629;28;20489;-61
2024/03/11 07:53:07;;;;;;;1.43;0.87;;;17.30;45.50;;;;;;5029963;28;20426;-60
2024/03/11 07:55:36;;;;;;;1.87;1.10;;;17.30;46.40;;;;;;5026974;28;20820;-60
2024/03/11 07:58:01;;;;;;;1.50;1.00;;;17.50;46.00;;;;;;5034046;28;20571;-60
2024/03/11 08:00:30;;;;;;;1.30;0.67;;;17.60;45.40;;;;;;5033609;28;20511;-60
2024/03/11 08:02:59;;;;;;;0.80;0.80;;;17.70;45.30;;;;;;5035787;28;20178;-60
2024/03/11 08:05:25;;;;;;;1.10;0.93;;;17.10;45.90;;;;;;5027879;28;20464;-60
2024/03/11 08:07:51;;;;;;;1.27;1.00;;;17.20;45.90;;;;;;5034645;28;20454;-60
2024/03/11 08:10:18;;;;;;;1.10;0.90;;;17.10;45.40;;;;;;5034092;28;20515;-60
2024/03/11 08:12:45;;;;;;;1.00;0.90;;;17.00;46.00;;;;;;5032872;28;20412;-59
2024/03/11 08:15:15;;;;;;;1.03;0.70;;;17.10;46.40;;;;;;5035043;28;20463;-60
2024/03/11 08:17:49;;;;;;;0.80;0.80;;;16.80;45.90;;;;;;5032336;28;20475;-60
2024/03/11 08:20:18;;;;;;;0.93;0.83;;;16.50;46.80;;;;;;5033210;28;21128;-61
2024/03/11 08:22:45;;;;;;;1.00;1.00;;;16.70;46.90;;;;;;5033487;28;20415;-60
2024/03/11 08:25:12;;;;;;;1.13;1.03;;;16.70;47.10;;;;;;5032169;28;20473;-61
2024/03/11 08:27:38;;;;;;;0.90;0.90;;;16.80;47.00;;;;;;5027372;28;20455;-59
2024/03/11 08:30:07;;;;;;;1.67;1.03;;;16.80;46.10;;;;;;5029963;28;20439;-60
2024/03/11 08:32:33;;;;;;;1.07;0.90;;;16.90;46.30;;;;;;5033257;28;20428;-59
2024/03/11 08:34:59;;;;;;;2.77;1.10;;;16.40;46.30;;;;;;5033085;28;20439;-60
2024/03/11 08:37:25;;;;;;;1.63;0.97;;;16.50;47.60;;;;;;5031504;28;20594;-60
2024/03/11 08:39:51;;;;;;;2.60;1.00;;;16.70;48.20;;;;;;5031151;28;20182;-59
2024/03/11 08:42:18;;;;;;;2.00;0.90;;;16.80;47.60;;;;;;5032319;28;20177;-61
2024/03/11 08:44:44;;;;;;;0.90;0.90;;;17.00;46.80;;;;;;5031588;28;20444;-60
2024/03/11 08:47:13;;;;;;;1.37;0.90;;;17.20;46.30;;;;;;5031855;28;20478;-59
2024/03/11 08:49:39;;;;;;;1.10;0.83;;;17.30;45.80;;;;;;5023548;28;20432;-61
2024/03/11 08:52:06;;;;;;;0.73;0.73;;;17.10;45.20;;;;;;5021682;28;20447;-61
2024/03/11 08:54:32;;;;;;;1.00;0.90;;;17.20;45.40;;;;;;5024971;28;21149;-60
2024/03/11 08:56:59;;;;;;;2.83;0.97;;;17.10;45.80;;;;;;5023727;28;20488;-60
2024/03/11 08:59:26;;;;;;;0.87;0.73;;;16.90;46.20;;;;;;5025336;28;20454;-61
2024/03/11 09:01:57;;;;;;;3.13;1.07;;;17.00;46.40;;;;;;5028481;28;20479;-61
2024/03/11 09:04:25;;;;;;;1.20;0.90;;;17.10;46.30;;;;;;5025358;28;20578;-61
2024/03/11 09:06:51;;;;;;;2.60;1.00;;;17.20;45.90;;;;;;5026569;28;20494;-60
2024/03/11 09:09:24;;;;;;;1.53;1.43;;;17.20;46.40;;;;;;5029340;28;20475;-60
2024/03/11 09:11:56;;;;;;;1.67;0.97;;;17.20;46.50;;;;;;5020985;28;20190;-60
2024/03/11 09:14:25;;;;;;;1.90;0.80;;;17.10;46.20;;;;;;5029318;28;21199;-62
2024/03/11 09:16:53;;;;;;;1.97;1.13;;;17.10;46.30;;;;;;5028015;28;20503;-61
2024/03/11 09:19:20;;;;;;;0.90;0.80;;;17.30;46.40;;;;;;5028858;28;20963;-60
2024/03/11 09:21:47;;;;;;;1.43;1.00;;;17.50;46.60;;;;;;5030698;28;20515;-62
2024/03/11 09:24:13;;;;;;;1.20;0.90;;;17.60;46.40;;;;;;5032580;28;20425;-60
2024/03/11 09:26:39;;;;;;;1.27;1.17;;;17.50;45.60;;;;;;5028852;28;20444;-60
2024/03/11 09:29:04;;;;;;;1.07;0.97;;;17.50;45.70;;;;;;5028134;28;20204;-61
2024/03/11 09:31:30;;;;;;;1.13;1.00;;;17.50;45.30;;;;;;5030428;28;20462;-60
2024/03/11 09:33:56;;;;;;;1.20;0.90;;;17.40;45.30;;;;;;5019497;28;20201;-61
2024/03/11 09:36:22;;;;;;;1.37;1.00;;;17.50;46.40;;;;;;5022519;28;20262;-61
2024/03/11 09:38:48;;;;;;;1.00;0.83;;;17.60;46.30;;;;;;5022439;28;20236;-60
2024/03/11 09:41:14;;;;;;;1.70;1.10;;;17.80;46.00;;;;;;5026365;28;20440;-60
2024/03/11 09:43:48;;;;;;;1.63;1.13;;;18.00;45.90;;;;;;5027481;28;20186;-60
2024/03/11 09:46:21;;;;;;;0.90;0.90;;;18.20;45.30;;;;;;5027821;28;21221;-61
2024/03/11 09:48:51;;;;;;;2.20;1.57;;;18.30;45.00;;;;;;5030953;28;20439;-60
2024/03/11 09:51:24;;;;;;;1.63;1.20;;;18.40;44.60;;;;;;5025609;28;20896;-59
2024/03/11 09:53:54;;;;;;;1.00;0.80;;;18.60;45.30;;;;;;5025655;28;20490;-60
2024/03/11 09:56:21;;;;;;;2.87;1.13;;;18.40;44.50;;;;;;5029153;28;20444;-61
2024/03/11 09:58:55;;;;;;;1.10;1.00;;;18.40;43.80;;;;;;5021030;28;20538;-60
2024/03/11 10:01:30;;;;;;;1.07;0.90;;;18.50;43.40;;;;;;5022644;28;21356;-59
2024/03/11 10:03:59;;;;;;;1.03;0.80;;;18.60;43.60;;;;;;5026394;28;20550;-61
2024/03/11 10:06:27;;;;;;;1.57;1.47;;;18.80;44.00;;;;;;5027991;28;20559;-62
2024/03/11 10:08:53;;;;;;;1.10;1.00;;;19.00;43.30;;;;;;5024434;28;20436;-60
2024/03/11 10:11:20;;;;;;;2.40;1.00;;;19.20;42.70;;;;;;5025481;28;20432;-60
2024/03/11 10:13:52;;;;;;;0.80;0.77;;;19.20;42.90;;;;;;5030954;28;20432;-62
2024/03/11 10:16:21;;;;;;;0.80;0.80;;;19.20;42.50;;;;;;5028537;28;20830;-61
2024/03/11 10:19:12;;;;;;;0.93;0.70;;;19.30;42.80;;;;;;5028507;28;20464;-60
2024/03/11 10:21:42;;;;;;;1.07;0.80;;;19.40;42.00;;;;;;5026013;28;20440;-60
2024/03/11 10:24:14;;;;;;;0.80;0.80;;;19.10;42.20;;;;;;5025901;28;20484;-61
2024/03/11 10:26:43;;;;;;;1.23;0.60;;;19.00;42.50;;;;;;5023818;28;20467;-60
2024/03/11 10:29:11;;;;;;;1.00;0.67;;;19.20;42.40;;;;;;5022383;28;20446;-59
2024/03/11 10:31:40;;;;;;;2.97;1.00;;;19.40;42.60;;;;;;5022524;28;20447;-59
2024/03/11 10:34:12;;;;;;;0.87;0.80;;;19.40;42.20;;;;;;5030186;28;20513;-60
2024/03/11 10:36:42;;;;;;;0.97;0.93;;;19.20;41.30;;;;;;5030922;28;20538;-60
2024/03/11 10:39:17;;;;;;;1.20;0.90;;;19.30;41.00;;;;;;5028010;28;20446;-60
2024/03/11 10:41:42;;;;;;;0.83;0.83;;;19.30;40.90;;;;;;5026827;28;20558;-60
2024/03/11 10:44:29;;;;;;;0.83;0.83;;;19.50;41.10;;;;;;5025326;28;20525;-60
2024/03/11 10:47:15;;;;;;;2.53;1.03;;;19.50;40.80;;;;;;5024985;28;20209;-62
2024/03/11 10:49:45;;;;;;;1.13;1.03;;;19.40;40.60;;;;;;5025526;28;20585;-61
2024/03/11 10:52:20;;;;;;;1.40;0.90;;;19.50;40.50;;;;;;5024837;28;20873;-60
2024/03/11 10:54:48;;;;;;;1.50;1.13;;;19.70;41.20;;;;;;5026629;28;20454;-62
2024/03/11 10:57:46;;;;;;;1.80;1.13;;;19.80;41.70;;;;;;5029735;28;20508;-60
2024/03/11 11:02:49;;;;;;;3.00;0.87;;;20.10;40.50;;;;;;5025916;28;20474;-61
2024/03/11 11:05:17;;;;;;;0.97;0.93;;;19.90;40.30;;;;;;5029741;28;20410;-60
2024/03/11 11:07:43;;;;;;;1.53;0.90;;;20.00;40.00;;;;;;5023805;28;20825;-59
2024/03/11 11:10:11;;;;;;;1.37;1.00;;;19.80;40.50;;;;;;5028762;28;20431;-61
2024/03/11 11:12:37;;;;;;;0.90;0.90;;;19.80;40.40;;;;;;5027447;28;20813;-59
2024/03/11 11:15:13;;;;;;;1.20;1.10;;;19.90;40.30;;;;;;5024651;28;20938;-59
2024/03/11 11:17:42;;;;;;;1.90;1.50;;;19.90;40.10;;;;;;5025690;28;20475;-60
2024/03/11 11:20:30;;;;;;;1.07;0.90;;;19.90;40.00;;;;;;5029851;28;20435;-62
2024/03/11 11:22:59;;;;;;;1.20;0.87;;;19.90;39.60;;;;;;5031410;28;20484;-60
2024/03/11 11:25:41;;;;;;;1.00;0.90;;;19.60;39.30;;;;;;5029312;28;20869;-61
2024/03/11 11:28:14;;;;;;;2.73;1.30;;;19.60;40.10;;;;;;5027648;28;20439;-61
2024/03/11 11:30:48;;;;;;;2.40;1.00;;;19.60;39.70;;;;;;5022795;28;20452;-60
2024/03/11 11:33:53;;;;;;;1.17;1.07;;;19.70;39.20;;;;;;5029760;28;20444;-61
2024/03/11 11:36:37;;;;;;;1.07;0.90;;;19.80;39.40;;;;;;5027441;28;20455;-61
2024/03/11 11:39:14;;;;;;;1.70;1.00;;;19.90;39.50;;;;;;5035241;28;20455;-60
2024/03/11 11:41:45;;;;;;;1.33;0.93;;;20.00;39.20;;;;;;5030924;28;20935;-61
2024/03/11 11:44:31;;;;;;;1.63;0.70;;;19.90;38.90;;;;;;5029412;28;20441;-62
2024/03/11 11:47:13;;;;;;;2.50;1.17;;;19.90;38.60;;;;;;5022818;28;20463;-61
2024/03/11 11:49:41;;;;;;;1.00;0.70;;;19.90;38.60;;;;;;5028416;28;20424;-61
2024/03/11 11:52:16;;;;;;;1.33;0.83;;;19.80;37.70;;;;;;5031323;28;20954;-61
2024/03/11 11:54:42;;;;;;;3.17;1.40;;;19.70;38.70;;;;;;5031852;28;20439;-61
2024/03/11 11:57:16;;;;;;;1.00;0.80;;;20.00;38.90;;;;;;5028786;28;21395;-59
2024/03/11 11:59:53;;;;;;;1.40;0.67;;;20.30;38.30;;;;;;5030351;28;20423;-61
2024/03/11 12:02:25;;;;;;;4.10;1.23;;;20.60;38.10;;;;;;5030791;28;20876;-61
2024/03/11 12:04:57;;;;;;;2.20;0.87;;;20.80;37.10;;;;;;5029862;28;20419;-60
2024/03/11 12:07:25;;;;;;;0.77;0.77;;;20.30;37.30;;;;;;5024841;28;20570;-60
2024/03/11 12:09:55;;;;;;;0.93;0.83;;;20.40;37.00;;;;;;5026489;28;20812;-60
2024/03/11 12:12:30;;;;;;;1.30;0.90;;;20.20;37.20;;;;;;5028795;28;20962;-62
2024/03/11 12:14:56;;;;;;;0.70;0.70;;;20.20;36.90;;;;;;5033622;28;20537;-62
2024/03/11 12:17:25;;;;;;;2.90;1.33;;;20.40;37.00;;;;;;5030734;28;20488;-62
2024/03/11 12:22:56;;;;;;;1.83;0.97;;;20.50;37.20;;;;;;5026074;28;20542;-59
2024/03/11 12:25:22;;;;;;;1.00;0.80;;;20.40;37.40;;;;;;5027268;28;20452;-61
2024/03/11 12:27:52;;;;;;;1.97;1.10;;;20.30;36.80;;;;;;5026141;28;20446;-61
2024/03/11 12:30:19;;;;;;;1.63;1.00;;;20.20;37.40;;;;;;5033368;28;20189;-62
2024/03/11 12:32:55;;;;;;;1.73;1.00;;;20.10;37.60;;;;;;5026497;28;20449;-61
2024/03/11 12:35:25;;;;;;;1.80;0.90;;;20.10;37.60;;;;;;5024008;28;20447;-61
2024/03/11 12:37:52;;;;;;;1.00;0.80;;;20.30;38.40;;;;;;5028616;28;20479;-61
2024/03/11 12:40:18;;;;;;;1.30;1.10;;;20.10;37.80;;;;;;5028673;28;20436;-61
2024/03/11 12:42:46;;;;;;;1.60;1.10;;;20.20;39.50;;;;;;5032649;28;20426;-61
2024/03/11 12:45:12;;;;;;;1.20;1.00;;;20.40;39.40;;;;;;5027932;28;20196;-61
2024/03/11 12:47:38;;;;;;;3.60;0.77;;;20.60;40.60;;;;;;5027929;28;20461;-61
2024/03/11 12:50:11;;;;;;;0.80;0.80;;;20.80;40.70;;;;;;5032609;28;20573;-62
2024/03/11 12:52:38;;;;;;;1.20;1.03;;;21.10;39.10;;;;;;5028492;28;20177;-61
2024/03/11 12:55:14;;;;;;;1.93;1.00;;;21.30;39.40;;;;;;5030683;28;21092;-61
2024/03/11 12:57:40;;;;;;;2.10;0.80;;;21.40;38.10;;;;;;5022978;28;20484;-61